sensor_id;sensor_type;location;lat;lon;timestamp;P1;durP1;ratioP1;P2;durP2;ratioP2
37529;SDS011;23374;52.758;6.872;2023-07-13T00:01:05;4.33;;;1.33;;
37529;SDS011;23374;52.758;6.872;2023-07-13T00:03:26;3.40;;;1.30;;
37529;SDS011;23374;52.758;6.872;2023-07-13T00:05:46;3.40;;;1.03;;
37529;SDS011;23374;52.758;6.872;2023-07-13T00:08:16;5.50;;;1.57;;
37529;SDS011;23374;52.758;6.872;2023-07-13T00:10:42;6.90;;;1.37;;
37529;SDS011;23374;52.758;6.872;2023-07-13T00:13:02;5.50;;;1.57;;
37529;SDS011;23374;52.758;6.872;2023-07-13T00:15:24;8.13;;;1.60;;
37529;SDS011;23374;52.758;6.872;2023-07-13T00:17:46;6.07;;;1.60;;
37529;SDS011;23374;52.758;6.872;2023-07-13T00:20:08;1.40;;;1.20;;
37529;SDS011;23374;52.758;6.872;2023-07-13T00:22:28;7.27;;;1.87;;
37529;SDS011;23374;52.758;6.872;2023-07-13T00:24:49;5.40;;;1.70;;
37529;SDS011;23374;52.758;6.872;2023-07-13T00:27:11;5.67;;;1.77;;
37529;SDS011;23374;52.758;6.872;2023-07-13T00:29:31;2.50;;;1.27;;
37529;SDS011;23374;52.758;6.872;2023-07-13T00:31:53;6.77;;;1.73;;
37529;SDS011;23374;52.758;6.872;2023-07-13T00:34:14;7.13;;;1.60;;
37529;SDS011;23374;52.758;6.872;2023-07-13T00:36:35;3.77;;;1.77;;
37529;SDS011;23374;52.758;6.872;2023-07-13T00:38:55;7.23;;;1.73;;
37529;SDS011;23374;52.758;6.872;2023-07-13T00:41:16;6.20;;;1.60;;
37529;SDS011;23374;52.758;6.872;2023-07-13T00:43:37;3.40;;;1.57;;
37529;SDS011;23374;52.758;6.872;2023-07-13T00:46:23;4.23;;;1.50;;
37529;SDS011;23374;52.758;6.872;2023-07-13T00:48:48;6.93;;;1.53;;
37529;SDS011;23374;52.758;6.872;2023-07-13T00:51:11;5.23;;;1.30;;
37529;SDS011;23374;52.758;6.872;2023-07-13T00:54:09;6.63;;;1.37;;
37529;SDS011;23374;52.758;6.872;2023-07-13T00:56:32;2.87;;;1.20;;
37529;SDS011;23374;52.758;6.872;2023-07-13T00:58:54;3.67;;;1.70;;
37529;SDS011;23374;52.758;6.872;2023-07-13T01:01:15;7.97;;;1.80;;
37529;SDS011;23374;52.758;6.872;2023-07-13T01:03:44;2.30;;;1.33;;
37529;SDS011;23374;52.758;6.872;2023-07-13T01:06:06;2.93;;;1.83;;
37529;SDS011;23374;52.758;6.872;2023-07-13T01:08:27;3.97;;;1.57;;
37529;SDS011;23374;52.758;6.872;2023-07-13T01:10:56;6.70;;;1.50;;
37529;SDS011;23374;52.758;6.872;2023-07-13T01:13:18;6.13;;;1.30;;
37529;SDS011;23374;52.758;6.872;2023-07-13T01:15:45;4.70;;;1.60;;
37529;SDS011;23374;52.758;6.872;2023-07-13T01:18:15;11.03;;;2.00;;
37529;SDS011;23374;52.758;6.872;2023-07-13T01:20:38;4.00;;;1.33;;
37529;SDS011;23374;52.758;6.872;2023-07-13T01:22:59;4.57;;;1.47;;
37529;SDS011;23374;52.758;6.872;2023-07-13T01:25:20;5.03;;;1.33;;
37529;SDS011;23374;52.758;6.872;2023-07-13T01:27:41;7.47;;;1.80;;
37529;SDS011;23374;52.758;6.872;2023-07-13T01:30:02;6.00;;;1.30;;
37529;SDS011;23374;52.758;6.872;2023-07-13T01:32:24;8.83;;;1.73;;
37529;SDS011;23374;52.758;6.872;2023-07-13T01:34:44;5.70;;;1.47;;
37529;SDS011;23374;52.758;6.872;2023-07-13T01:37:06;7.17;;;1.90;;
37529;SDS011;23374;52.758;6.872;2023-07-13T01:39:27;7.57;;;1.63;;
37529;SDS011;23374;52.758;6.872;2023-07-13T01:41:47;4.80;;;1.63;;
37529;SDS011;23374;52.758;6.872;2023-07-13T01:44:07;5.13;;;1.50;;
37529;SDS011;23374;52.758;6.872;2023-07-13T01:46:28;3.63;;;1.40;;
37529;SDS011;23374;52.758;6.872;2023-07-13T01:48:48;4.10;;;1.30;;
37529;SDS011;23374;52.758;6.872;2023-07-13T01:51:09;11.53;;;1.70;;
37529;SDS011;23374;52.758;6.872;2023-07-13T01:54:11;7.20;;;1.93;;
37529;SDS011;23374;52.758;6.872;2023-07-13T01:56:32;7.67;;;1.50;;
37529;SDS011;23374;52.758;6.872;2023-07-13T01:58:52;4.70;;;1.47;;
37529;SDS011;23374;52.758;6.872;2023-07-13T02:01:13;7.90;;;1.80;;
37529;SDS011;23374;52.758;6.872;2023-07-13T02:03:34;7.30;;;1.90;;
37529;SDS011;23374;52.758;6.872;2023-07-13T02:05:54;5.47;;;1.63;;
37529;SDS011;23374;52.758;6.872;2023-07-13T02:08:15;5.57;;;1.33;;
37529;SDS011;23374;52.758;6.872;2023-07-13T02:10:36;6.57;;;1.70;;
37529;SDS011;23374;52.758;6.872;2023-07-13T02:12:57;6.30;;;1.93;;
37529;SDS011;23374;52.758;6.872;2023-07-13T02:15:17;8.73;;;1.93;;
37529;SDS011;23374;52.758;6.872;2023-07-13T02:17:38;8.40;;;1.63;;
37529;SDS011;23374;52.758;6.872;2023-07-13T02:19:58;5.47;;;1.53;;
37529;SDS011;23374;52.758;6.872;2023-07-13T02:22:18;6.97;;;1.60;;
37529;SDS011;23374;52.758;6.872;2023-07-13T02:24:39;4.57;;;1.70;;
37529;SDS011;23374;52.758;6.872;2023-07-13T02:27:00;5.37;;;1.57;;
37529;SDS011;23374;52.758;6.872;2023-07-13T02:29:20;4.97;;;1.40;;
37529;SDS011;23374;52.758;6.872;2023-07-13T02:31:41;10.23;;;2.00;;
37529;SDS011;23374;52.758;6.872;2023-07-13T02:34:01;7.67;;;1.83;;
37529;SDS011;23374;52.758;6.872;2023-07-13T02:36:22;6.63;;;1.60;;
37529;SDS011;23374;52.758;6.872;2023-07-13T02:38:42;4.53;;;1.63;;
37529;SDS011;23374;52.758;6.872;2023-07-13T02:41:04;5.90;;;1.90;;
37529;SDS011;23374;52.758;6.872;2023-07-13T02:43:26;7.27;;;1.63;;
37529;SDS011;23374;52.758;6.872;2023-07-13T02:45:47;6.60;;;1.70;;
37529;SDS011;23374;52.758;6.872;2023-07-13T02:48:07;7.07;;;2.13;;
37529;SDS011;23374;52.758;6.872;2023-07-13T02:50:28;8.60;;;1.67;;
37529;SDS011;23374;52.758;6.872;2023-07-13T02:52:48;6.10;;;1.90;;
37529;SDS011;23374;52.758;6.872;2023-07-13T02:55:09;3.77;;;1.40;;
37529;SDS011;23374;52.758;6.872;2023-07-13T02:57:29;4.80;;;1.57;;
37529;SDS011;23374;52.758;6.872;2023-07-13T02:59:52;4.33;;;1.77;;
37529;SDS011;23374;52.758;6.872;2023-07-13T03:02:13;5.53;;;1.50;;
37529;SDS011;23374;52.758;6.872;2023-07-13T03:04:38;5.93;;;1.87;;
37529;SDS011;23374;52.758;6.872;2023-07-13T03:07:00;6.30;;;1.90;;
37529;SDS011;23374;52.758;6.872;2023-07-13T03:09:21;4.67;;;1.63;;
37529;SDS011;23374;52.758;6.872;2023-07-13T03:11:41;2.43;;;1.30;;
37529;SDS011;23374;52.758;6.872;2023-07-13T03:14:02;3.80;;;1.90;;
37529;SDS011;23374;52.758;6.872;2023-07-13T03:16:22;5.43;;;1.60;;
37529;SDS011;23374;52.758;6.872;2023-07-13T03:18:42;7.73;;;1.93;;
37529;SDS011;23374;52.758;6.872;2023-07-13T03:21:03;4.60;;;1.90;;
37529;SDS011;23374;52.758;6.872;2023-07-13T03:23:24;4.67;;;1.93;;
37529;SDS011;23374;52.758;6.872;2023-07-13T03:25:45;7.50;;;1.90;;
37529;SDS011;23374;52.758;6.872;2023-07-13T03:28:05;3.73;;;1.57;;
37529;SDS011;23374;52.758;6.872;2023-07-13T03:30:26;5.10;;;1.57;;
37529;SDS011;23374;52.758;6.872;2023-07-13T03:32:46;7.80;;;1.83;;
37529;SDS011;23374;52.758;6.872;2023-07-13T03:35:08;6.90;;;2.13;;
37529;SDS011;23374;52.758;6.872;2023-07-13T03:37:29;4.27;;;1.70;;
37529;SDS011;23374;52.758;6.872;2023-07-13T03:39:50;5.23;;;2.00;;
37529;SDS011;23374;52.758;6.872;2023-07-13T03:42:10;7.10;;;1.93;;
37529;SDS011;23374;52.758;6.872;2023-07-13T03:44:30;4.40;;;1.80;;
37529;SDS011;23374;52.758;6.872;2023-07-13T03:46:51;5.70;;;1.83;;
37529;SDS011;23374;52.758;6.872;2023-07-13T03:49:12;7.90;;;1.90;;
37529;SDS011;23374;52.758;6.872;2023-07-13T03:51:32;8.00;;;2.37;;
37529;SDS011;23374;52.758;6.872;2023-07-13T03:53:52;7.03;;;2.10;;
37529;SDS011;23374;52.758;6.872;2023-07-13T03:56:13;5.90;;;1.77;;
37529;SDS011;23374;52.758;6.872;2023-07-13T03:58:40;5.30;;;1.80;;
37529;SDS011;23374;52.758;6.872;2023-07-13T04:01:03;5.93;;;2.37;;
37529;SDS011;23374;52.758;6.872;2023-07-13T04:03:25;8.17;;;2.20;;
37529;SDS011;23374;52.758;6.872;2023-07-13T04:05:47;4.97;;;1.90;;
37529;SDS011;23374;52.758;6.872;2023-07-13T04:08:08;7.60;;;2.13;;
37529;SDS011;23374;52.758;6.872;2023-07-13T04:10:28;7.63;;;2.00;;
37529;SDS011;23374;52.758;6.872;2023-07-13T04:12:49;4.53;;;2.10;;
37529;SDS011;23374;52.758;6.872;2023-07-13T04:15:09;10.37;;;2.20;;
37529;SDS011;23374;52.758;6.872;2023-07-13T04:17:30;7.43;;;2.07;;
37529;SDS011;23374;52.758;6.872;2023-07-13T04:19:51;5.30;;;1.80;;
37529;SDS011;23374;52.758;6.872;2023-07-13T04:22:11;4.90;;;2.43;;
37529;SDS011;23374;52.758;6.872;2023-07-13T04:24:31;6.67;;;2.00;;
37529;SDS011;23374;52.758;6.872;2023-07-13T04:26:52;6.73;;;1.63;;
37529;SDS011;23374;52.758;6.872;2023-07-13T04:29:12;3.50;;;1.70;;
37529;SDS011;23374;52.758;6.872;2023-07-13T04:31:32;7.37;;;2.13;;
37529;SDS011;23374;52.758;6.872;2023-07-13T04:33:53;5.60;;;1.93;;
37529;SDS011;23374;52.758;6.872;2023-07-13T04:36:15;5.23;;;1.90;;
37529;SDS011;23374;52.758;6.872;2023-07-13T04:38:36;7.80;;;2.07;;
37529;SDS011;23374;52.758;6.872;2023-07-13T04:40:58;8.27;;;2.37;;
37529;SDS011;23374;52.758;6.872;2023-07-13T04:43:20;8.17;;;2.17;;
37529;SDS011;23374;52.758;6.872;2023-07-13T04:45:41;7.07;;;2.37;;
37529;SDS011;23374;52.758;6.872;2023-07-13T04:48:02;7.93;;;2.33;;
37529;SDS011;23374;52.758;6.872;2023-07-13T04:50:23;8.63;;;2.40;;
37529;SDS011;23374;52.758;6.872;2023-07-13T04:52:43;5.27;;;2.13;;
37529;SDS011;23374;52.758;6.872;2023-07-13T04:55:04;6.67;;;2.17;;
37529;SDS011;23374;52.758;6.872;2023-07-13T04:57:26;6.60;;;2.10;;
37529;SDS011;23374;52.758;6.872;2023-07-13T04:59:47;6.27;;;2.43;;
37529;SDS011;23374;52.758;6.872;2023-07-13T05:02:07;4.10;;;2.13;;
37529;SDS011;23374;52.758;6.872;2023-07-13T05:04:28;9.60;;;2.00;;
37529;SDS011;23374;52.758;6.872;2023-07-13T05:06:48;8.57;;;2.00;;
37529;SDS011;23374;52.758;6.872;2023-07-13T05:09:08;6.40;;;1.93;;
37529;SDS011;23374;52.758;6.872;2023-07-13T05:11:29;7.60;;;2.40;;
37529;SDS011;23374;52.758;6.872;2023-07-13T05:13:49;10.47;;;2.40;;
37529;SDS011;23374;52.758;6.872;2023-07-13T05:16:09;9.70;;;2.30;;
37529;SDS011;23374;52.758;6.872;2023-07-13T05:18:29;5.33;;;2.40;;
37529;SDS011;23374;52.758;6.872;2023-07-13T05:21:02;8.40;;;2.20;;
37529;SDS011;23374;52.758;6.872;2023-07-13T05:23:25;6.90;;;2.20;;
37529;SDS011;23374;52.758;6.872;2023-07-13T05:25:45;4.93;;;2.13;;
37529;SDS011;23374;52.758;6.872;2023-07-13T05:28:05;6.40;;;2.00;;
37529;SDS011;23374;52.758;6.872;2023-07-13T05:30:26;6.90;;;2.10;;
37529;SDS011;23374;52.758;6.872;2023-07-13T05:32:46;5.30;;;2.13;;
37529;SDS011;23374;52.758;6.872;2023-07-13T05:35:07;5.93;;;2.47;;
37529;SDS011;23374;52.758;6.872;2023-07-13T05:37:27;5.60;;;1.87;;
37529;SDS011;23374;52.758;6.872;2023-07-13T05:39:48;4.97;;;1.97;;
37529;SDS011;23374;52.758;6.872;2023-07-13T05:42:08;9.97;;;2.37;;
37529;SDS011;23374;52.758;6.872;2023-07-13T05:44:29;5.10;;;2.00;;
37529;SDS011;23374;52.758;6.872;2023-07-13T05:46:49;5.97;;;2.00;;
37529;SDS011;23374;52.758;6.872;2023-07-13T05:49:09;6.60;;;2.17;;
37529;SDS011;23374;52.758;6.872;2023-07-13T05:51:30;5.70;;;1.60;;
37529;SDS011;23374;52.758;6.872;2023-07-13T05:53:51;3.87;;;2.07;;
37529;SDS011;23374;52.758;6.872;2023-07-13T05:56:11;9.03;;;2.37;;
37529;SDS011;23374;52.758;6.872;2023-07-13T05:58:31;3.13;;;1.87;;
37529;SDS011;23374;52.758;6.872;2023-07-13T06:01:02;6.33;;;2.03;;
37529;SDS011;23374;52.758;6.872;2023-07-13T06:03:27;9.80;;;2.03;;
37529;SDS011;23374;52.758;6.872;2023-07-13T06:05:47;5.33;;;2.13;;
37529;SDS011;23374;52.758;6.872;2023-07-13T06:08:07;7.70;;;2.13;;
37529;SDS011;23374;52.758;6.872;2023-07-13T06:10:28;3.40;;;1.87;;
37529;SDS011;23374;52.758;6.872;2023-07-13T06:12:51;5.10;;;1.80;;
37529;SDS011;23374;52.758;6.872;2023-07-13T06:15:12;6.63;;;2.30;;
37529;SDS011;23374;52.758;6.872;2023-07-13T06:17:32;4.40;;;2.10;;
37529;SDS011;23374;52.758;6.872;2023-07-13T06:19:52;6.73;;;2.10;;
37529;SDS011;23374;52.758;6.872;2023-07-13T06:22:12;5.67;;;2.00;;
37529;SDS011;23374;52.758;6.872;2023-07-13T06:24:33;4.70;;;1.97;;
37529;SDS011;23374;52.758;6.872;2023-07-13T06:26:53;2.60;;;1.77;;
37529;SDS011;23374;52.758;6.872;2023-07-13T06:29:13;4.03;;;2.00;;
37529;SDS011;23374;52.758;6.872;2023-07-13T06:31:34;5.30;;;2.07;;
37529;SDS011;23374;52.758;6.872;2023-07-13T06:33:54;4.27;;;1.90;;
37529;SDS011;23374;52.758;6.872;2023-07-13T06:36:15;5.33;;;2.30;;
37529;SDS011;23374;52.758;6.872;2023-07-13T06:38:36;8.80;;;2.40;;
37529;SDS011;23374;52.758;6.872;2023-07-13T06:40:57;4.17;;;2.20;;
37529;SDS011;23374;52.758;6.872;2023-07-13T06:43:17;8.13;;;2.00;;
37529;SDS011;23374;52.758;6.872;2023-07-13T06:45:43;6.00;;;2.30;;
37529;SDS011;23374;52.758;6.872;2023-07-13T06:48:09;10.70;;;2.17;;
37529;SDS011;23374;52.758;6.872;2023-07-13T06:50:29;4.87;;;2.10;;
37529;SDS011;23374;52.758;6.872;2023-07-13T06:52:50;9.57;;;2.30;;
37529;SDS011;23374;52.758;6.872;2023-07-13T06:55:12;5.37;;;2.07;;
37529;SDS011;23374;52.758;6.872;2023-07-13T06:57:32;8.53;;;2.50;;
37529;SDS011;23374;52.758;6.872;2023-07-13T06:59:53;6.50;;;2.63;;
37529;SDS011;23374;52.758;6.872;2023-07-13T07:02:13;8.27;;;2.13;;
37529;SDS011;23374;52.758;6.872;2023-07-13T07:04:34;6.70;;;2.30;;
37529;SDS011;23374;52.758;6.872;2023-07-13T07:06:54;6.83;;;2.77;;
37529;SDS011;23374;52.758;6.872;2023-07-13T07:09:15;6.20;;;2.30;;
37529;SDS011;23374;52.758;6.872;2023-07-13T07:11:36;6.00;;;2.67;;
37529;SDS011;23374;52.758;6.872;2023-07-13T07:13:56;9.33;;;2.50;;
37529;SDS011;23374;52.758;6.872;2023-07-13T07:16:17;4.50;;;2.33;;
37529;SDS011;23374;52.758;6.872;2023-07-13T07:18:37;4.27;;;2.40;;
37529;SDS011;23374;52.758;6.872;2023-07-13T07:20:57;3.97;;;2.30;;
37529;SDS011;23374;52.758;6.872;2023-07-13T07:23:18;3.17;;;2.40;;
37529;SDS011;23374;52.758;6.872;2023-07-13T07:25:39;3.27;;;2.60;;
37529;SDS011;23374;52.758;6.872;2023-07-13T07:28:02;5.10;;;2.30;;
37529;SDS011;23374;52.758;6.872;2023-07-13T07:30:23;7.33;;;2.43;;
37529;SDS011;23374;52.758;6.872;2023-07-13T07:32:43;4.27;;;2.33;;
37529;SDS011;23374;52.758;6.872;2023-07-13T07:35:06;9.03;;;2.73;;
37529;SDS011;23374;52.758;6.872;2023-07-13T07:37:27;7.03;;;2.53;;
37529;SDS011;23374;52.758;6.872;2023-07-13T07:39:47;5.37;;;2.50;;
37529;SDS011;23374;52.758;6.872;2023-07-13T07:42:08;7.80;;;2.83;;
37529;SDS011;23374;52.758;6.872;2023-07-13T07:44:28;5.07;;;2.80;;
37529;SDS011;23374;52.758;6.872;2023-07-13T07:46:50;7.80;;;2.80;;
37529;SDS011;23374;52.758;6.872;2023-07-13T07:49:10;8.27;;;2.93;;
37529;SDS011;23374;52.758;6.872;2023-07-13T07:51:31;6.43;;;2.43;;
37529;SDS011;23374;52.758;6.872;2023-07-13T07:53:51;7.47;;;2.63;;
37529;SDS011;23374;52.758;6.872;2023-07-13T07:56:12;7.10;;;2.63;;
37529;SDS011;23374;52.758;6.872;2023-07-13T07:58:32;6.80;;;2.60;;
37529;SDS011;23374;52.758;6.872;2023-07-13T08:00:53;10.63;;;2.93;;
37529;SDS011;23374;52.758;6.872;2023-07-13T08:03:13;9.80;;;2.87;;
37529;SDS011;23374;52.758;6.872;2023-07-13T08:05:35;10.57;;;3.23;;
37529;SDS011;23374;52.758;6.872;2023-07-13T08:07:56;9.77;;;2.97;;
37529;SDS011;23374;52.758;6.872;2023-07-13T08:10:17;6.03;;;2.63;;
37529;SDS011;23374;52.758;6.872;2023-07-13T08:12:38;6.43;;;2.80;;
37529;SDS011;23374;52.758;6.872;2023-07-13T08:15:00;7.60;;;2.80;;
37529;SDS011;23374;52.758;6.872;2023-07-13T08:17:21;10.53;;;2.77;;
37529;SDS011;23374;52.758;6.872;2023-07-13T08:19:41;7.47;;;3.27;;
37529;SDS011;23374;52.758;6.872;2023-07-13T08:22:01;6.57;;;2.67;;
37529;SDS011;23374;52.758;6.872;2023-07-13T08:24:23;7.40;;;3.00;;
37529;SDS011;23374;52.758;6.872;2023-07-13T08:26:45;9.00;;;3.40;;
37529;SDS011;23374;52.758;6.872;2023-07-13T08:29:06;11.30;;;3.40;;
37529;SDS011;23374;52.758;6.872;2023-07-13T08:31:26;6.20;;;2.90;;
37529;SDS011;23374;52.758;6.872;2023-07-13T08:33:46;5.33;;;2.63;;
37529;SDS011;23374;52.758;6.872;2023-07-13T08:36:07;6.17;;;2.50;;
37529;SDS011;23374;52.758;6.872;2023-07-13T08:38:28;5.63;;;2.90;;
37529;SDS011;23374;52.758;6.872;2023-07-13T08:40:53;9.50;;;3.57;;
37529;SDS011;23374;52.758;6.872;2023-07-13T08:43:17;13.10;;;3.83;;
37529;SDS011;23374;52.758;6.872;2023-07-13T08:45:46;8.37;;;3.30;;
37529;SDS011;23374;52.758;6.872;2023-07-13T08:48:13;9.27;;;3.63;;
37529;SDS011;23374;52.758;6.872;2023-07-13T08:50:49;7.87;;;3.43;;
37529;SDS011;23374;52.758;6.872;2023-07-13T08:53:20;6.93;;;3.80;;
37529;SDS011;23374;52.758;6.872;2023-07-13T08:55:43;11.50;;;4.23;;
37529;SDS011;23374;52.758;6.872;2023-07-13T08:58:15;8.40;;;3.20;;
37529;SDS011;23374;52.758;6.872;2023-07-13T09:00:48;6.07;;;2.80;;
37529;SDS011;23374;52.758;6.872;2023-07-13T09:05:44;7.23;;;3.40;;
37529;SDS011;23374;52.758;6.872;2023-07-13T09:08:45;8.30;;;4.30;;
37529;SDS011;23374;52.758;6.872;2023-07-13T09:17:35;11.20;;;4.13;;
37529;SDS011;23374;52.758;6.872;2023-07-13T09:20:54;6.77;;;3.83;;
37529;SDS011;23374;52.758;6.872;2023-07-13T09:23:27;5.43;;;3.40;;
37529;SDS011;23374;52.758;6.872;2023-07-13T09:25:54;6.93;;;3.50;;
37529;SDS011;23374;52.758;6.872;2023-07-13T09:28:27;5.77;;;3.00;;
37529;SDS011;23374;52.758;6.872;2023-07-13T09:31:55;4.17;;;2.00;;
37529;SDS011;23374;52.758;6.872;2023-07-13T09:34:20;3.47;;;1.93;;
37529;SDS011;23374;52.758;6.872;2023-07-13T09:36:40;9.80;;;1.83;;
37529;SDS011;23374;52.758;6.872;2023-07-13T09:39:38;8.27;;;2.17;;
37529;SDS011;23374;52.758;6.872;2023-07-13T09:42:35;4.53;;;1.80;;
37529;SDS011;23374;52.758;6.872;2023-07-13T09:44:59;2.17;;;0.90;;
37529;SDS011;23374;52.758;6.872;2023-07-13T09:47:30;1.40;;;1.00;;
37529;SDS011;23374;52.758;6.872;2023-07-13T09:50:03;1.43;;;0.70;;
37529;SDS011;23374;52.758;6.872;2023-07-13T09:52:41;1.47;;;0.70;;
37529;SDS011;23374;52.758;6.872;2023-07-13T09:55:11;3.33;;;0.67;;
37529;SDS011;23374;52.758;6.872;2023-07-13T09:57:48;1.17;;;0.80;;
37529;SDS011;23374;52.758;6.872;2023-07-13T10:00:28;1.37;;;0.60;;
37529;SDS011;23374;52.758;6.872;2023-07-13T10:03:04;1.20;;;0.70;;
37529;SDS011;23374;52.758;6.872;2023-07-13T10:05:48;2.70;;;0.80;;
37529;SDS011;23374;52.758;6.872;2023-07-13T10:08:27;0.50;;;0.50;;
37529;SDS011;23374;52.758;6.872;2023-07-13T10:10:58;2.83;;;0.90;;
37529;SDS011;23374;52.758;6.872;2023-07-13T10:14:03;1.13;;;0.80;;
37529;SDS011;23374;52.758;6.872;2023-07-13T10:16:35;2.53;;;1.00;;
37529;SDS011;23374;52.758;6.872;2023-07-13T10:18:57;1.27;;;1.10;;
37529;SDS011;23374;52.758;6.872;2023-07-13T10:21:22;1.80;;;0.97;;
37529;SDS011;23374;52.758;6.872;2023-07-13T10:24:03;1.00;;;0.80;;
37529;SDS011;23374;52.758;6.872;2023-07-13T10:26:34;3.03;;;1.17;;
37529;SDS011;23374;52.758;6.872;2023-07-13T10:28:56;1.67;;;1.17;;
37529;SDS011;23374;52.758;6.872;2023-07-13T10:31:22;2.43;;;1.50;;
37529;SDS011;23374;52.758;6.872;2023-07-13T10:33:43;2.10;;;1.67;;
37529;SDS011;23374;52.758;6.872;2023-07-13T10:36:17;4.33;;;1.83;;
37529;SDS011;23374;52.758;6.872;2023-07-13T10:39:02;4.13;;;2.10;;
37529;SDS011;23374;52.758;6.872;2023-07-13T10:41:24;6.47;;;2.20;;
37529;SDS011;23374;52.758;6.872;2023-07-13T10:43:50;4.73;;;2.90;;
37529;SDS011;23374;52.758;6.872;2023-07-13T10:46:14;4.80;;;3.13;;
37529;SDS011;23374;52.758;6.872;2023-07-13T10:48:38;5.03;;;3.90;;
37529;SDS011;23374;52.758;6.872;2023-07-13T10:51:03;6.20;;;4.57;;
37529;SDS011;23374;52.758;6.872;2023-07-13T10:53:31;8.50;;;5.03;;
37529;SDS011;23374;52.758;6.872;2023-07-13T10:56:04;7.47;;;4.83;;
37529;SDS011;23374;52.758;6.872;2023-07-13T10:58:37;12.63;;;5.50;;
37529;SDS011;23374;52.758;6.872;2023-07-13T11:06:41;7.77;;;4.17;;
37529;SDS011;23374;52.758;6.872;2023-07-13T11:20:23;8.87;;;4.33;;
37529;SDS011;23374;52.758;6.872;2023-07-13T11:23:08;9.63;;;4.97;;
37529;SDS011;23374;52.758;6.872;2023-07-13T11:25:38;7.90;;;4.50;;
37529;SDS011;23374;52.758;6.872;2023-07-13T11:29:50;7.57;;;3.67;;
37529;SDS011;23374;52.758;6.872;2023-07-13T11:32:30;4.47;;;2.23;;
37529;SDS011;23374;52.758;6.872;2023-07-13T11:34:51;3.47;;;2.20;;
37529;SDS011;23374;52.758;6.872;2023-07-13T11:37:15;3.23;;;1.97;;
37529;SDS011;23374;52.758;6.872;2023-07-13T11:39:41;2.70;;;1.70;;
37529;SDS011;23374;52.758;6.872;2023-07-13T11:42:07;3.00;;;2.00;;
37529;SDS011;23374;52.758;6.872;2023-07-13T11:44:33;4.53;;;2.00;;
37529;SDS011;23374;52.758;6.872;2023-07-13T11:46:58;5.40;;;2.20;;
37529;SDS011;23374;52.758;6.872;2023-07-13T11:49:31;5.03;;;2.27;;
37529;SDS011;23374;52.758;6.872;2023-07-13T11:51:59;3.53;;;2.20;;
37529;SDS011;23374;52.758;6.872;2023-07-13T11:54:33;5.57;;;2.60;;
37529;SDS011;23374;52.758;6.872;2023-07-13T12:00:15;3.20;;;2.30;;
37529;SDS011;23374;52.758;6.872;2023-07-13T12:02:41;2.80;;;2.23;;
37529;SDS011;23374;52.758;6.872;2023-07-13T12:05:05;6.13;;;2.23;;
37529;SDS011;23374;52.758;6.872;2023-07-13T12:07:28;5.53;;;2.80;;
37529;SDS011;23374;52.758;6.872;2023-07-13T12:09:50;2.60;;;2.40;;
37529;SDS011;23374;52.758;6.872;2023-07-13T12:12:16;6.17;;;2.63;;
37529;SDS011;23374;52.758;6.872;2023-07-13T12:14:41;3.17;;;2.73;;
37529;SDS011;23374;52.758;6.872;2023-07-13T12:17:04;4.53;;;3.00;;
37529;SDS011;23374;52.758;6.872;2023-07-13T12:19:32;4.37;;;3.30;;
37529;SDS011;23374;52.758;6.872;2023-07-13T12:21:55;4.33;;;2.60;;
37529;SDS011;23374;52.758;6.872;2023-07-13T12:24:18;4.87;;;3.40;;
37529;SDS011;23374;52.758;6.872;2023-07-13T12:26:42;9.57;;;3.70;;
37529;SDS011;23374;52.758;6.872;2023-07-13T12:29:05;4.67;;;3.40;;
37529;SDS011;23374;52.758;6.872;2023-07-13T12:31:46;4.30;;;3.10;;
37529;SDS011;23374;52.758;6.872;2023-07-13T12:34:13;9.93;;;4.10;;
37529;SDS011;23374;52.758;6.872;2023-07-13T12:36:59;6.87;;;3.57;;
37529;SDS011;23374;52.758;6.872;2023-07-13T12:39:28;5.43;;;3.63;;
37529;SDS011;23374;52.758;6.872;2023-07-13T12:42:27;7.90;;;3.73;;
37529;SDS011;23374;52.758;6.872;2023-07-13T12:44:57;5.57;;;3.30;;
37529;SDS011;23374;52.758;6.872;2023-07-13T12:47:43;7.13;;;3.50;;
37529;SDS011;23374;52.758;6.872;2023-07-13T12:50:16;6.40;;;3.13;;
37529;SDS011;23374;52.758;6.872;2023-07-13T12:52:43;5.53;;;2.80;;
37529;SDS011;23374;52.758;6.872;2023-07-13T12:55:07;6.03;;;3.10;;
37529;SDS011;23374;52.758;6.872;2023-07-13T12:57:39;4.80;;;3.10;;
37529;SDS011;23374;52.758;6.872;2023-07-13T13:00:02;5.40;;;3.43;;
37529;SDS011;23374;52.758;6.872;2023-07-13T13:02:32;4.50;;;2.93;;
37529;SDS011;23374;52.758;6.872;2023-07-13T13:04:57;7.83;;;2.37;;
37529;SDS011;23374;52.758;6.872;2023-07-13T13:07:18;4.77;;;2.40;;
37529;SDS011;23374;52.758;6.872;2023-07-13T13:09:40;2.60;;;2.27;;
37529;SDS011;23374;52.758;6.872;2023-07-13T13:12:00;4.70;;;2.20;;
37529;SDS011;23374;52.758;6.872;2023-07-13T13:14:21;2.70;;;2.13;;
37529;SDS011;23374;52.758;6.872;2023-07-13T13:16:48;3.00;;;2.00;;
37529;SDS011;23374;52.758;6.872;2023-07-13T13:19:15;3.67;;;2.27;;
37529;SDS011;23374;52.758;6.872;2023-07-13T13:21:38;2.27;;;1.60;;
37529;SDS011;23374;52.758;6.872;2023-07-13T13:23:59;3.50;;;1.57;;
37529;SDS011;23374;52.758;6.872;2023-07-13T13:26:21;3.73;;;1.57;;
37529;SDS011;23374;52.758;6.872;2023-07-13T13:28:43;3.90;;;1.40;;
37529;SDS011;23374;52.758;6.872;2023-07-13T13:31:04;1.43;;;0.90;;
37529;SDS011;23374;52.758;6.872;2023-07-13T13:33:24;2.60;;;1.20;;
37529;SDS011;23374;52.758;6.872;2023-07-13T13:35:45;3.20;;;1.03;;
37529;SDS011;23374;52.758;6.872;2023-07-13T13:38:17;2.67;;;1.20;;
37529;SDS011;23374;52.758;6.872;2023-07-13T13:40:44;1.40;;;0.90;;
37529;SDS011;23374;52.758;6.872;2023-07-13T13:43:20;4.33;;;1.30;;
37529;SDS011;23374;52.758;6.872;2023-07-13T13:45:48;2.70;;;1.03;;
37529;SDS011;23374;52.758;6.872;2023-07-13T13:48:14;2.90;;;1.07;;
37529;SDS011;23374;52.758;6.872;2023-07-13T13:50:39;1.00;;;0.80;;
37529;SDS011;23374;52.758;6.872;2023-07-13T13:53:00;2.13;;;1.00;;
37529;SDS011;23374;52.758;6.872;2023-07-13T13:55:22;3.07;;;1.33;;
37529;SDS011;23374;52.758;6.872;2023-07-13T13:57:43;2.33;;;0.93;;
37529;SDS011;23374;52.758;6.872;2023-07-13T14:00:07;2.97;;;1.00;;
37529;SDS011;23374;52.758;6.872;2023-07-13T14:02:31;4.00;;;1.20;;
37529;SDS011;23374;52.758;6.872;2023-07-13T14:04:55;3.57;;;1.30;;
37529;SDS011;23374;52.758;6.872;2023-07-13T14:07:18;2.27;;;1.40;;
37529;SDS011;23374;52.758;6.872;2023-07-13T14:09:39;1.83;;;0.90;;
37529;SDS011;23374;52.758;6.872;2023-07-13T14:12:09;2.33;;;0.80;;
37529;SDS011;23374;52.758;6.872;2023-07-13T14:14:31;3.83;;;0.97;;
37529;SDS011;23374;52.758;6.872;2023-07-13T14:16:54;3.77;;;1.00;;
37529;SDS011;23374;52.758;6.872;2023-07-13T14:19:16;2.33;;;1.30;;
37529;SDS011;23374;52.758;6.872;2023-07-13T14:21:36;1.70;;;0.70;;
37529;SDS011;23374;52.758;6.872;2023-07-13T14:23:57;1.17;;;0.97;;
37529;SDS011;23374;52.758;6.872;2023-07-13T14:26:22;3.33;;;1.00;;
37529;SDS011;23374;52.758;6.872;2023-07-13T14:28:47;5.80;;;0.70;;
37529;SDS011;23374;52.758;6.872;2023-07-13T14:31:10;2.20;;;0.80;;
37529;SDS011;23374;52.758;6.872;2023-07-13T14:33:31;3.30;;;0.90;;
37529;SDS011;23374;52.758;6.872;2023-07-13T14:35:52;1.20;;;0.77;;
37529;SDS011;23374;52.758;6.872;2023-07-13T14:38:15;1.97;;;0.80;;
37529;SDS011;23374;52.758;6.872;2023-07-13T14:40:39;4.63;;;1.17;;
37529;SDS011;23374;52.758;6.872;2023-07-13T14:42:59;2.47;;;0.80;;
37529;SDS011;23374;52.758;6.872;2023-07-13T14:45:20;1.30;;;0.80;;
37529;SDS011;23374;52.758;6.872;2023-07-13T14:47:41;1.73;;;0.80;;
37529;SDS011;23374;52.758;6.872;2023-07-13T14:50:03;1.90;;;0.90;;
37529;SDS011;23374;52.758;6.872;2023-07-13T14:52:24;2.27;;;0.80;;
37529;SDS011;23374;52.758;6.872;2023-07-13T14:54:45;1.33;;;0.87;;
37529;SDS011;23374;52.758;6.872;2023-07-13T14:57:14;5.07;;;1.13;;
37529;SDS011;23374;52.758;6.872;2023-07-13T14:59:39;0.80;;;0.70;;
37529;SDS011;23374;52.758;6.872;2023-07-13T15:02:00;2.20;;;1.00;;